sensor_id;sensor_type;location;lat;lon;timestamp;pressure;altitude;pressure_sealevel;temperature;humidity
35989;BME280;22064;42.672;23.282;2023-07-31T00:02:23;94359.84;;;19.90;100.00
35989;BME280;22064;42.672;23.282;2023-07-31T00:04:49;94367.00;;;19.90;100.00
35989;BME280;22064;42.672;23.282;2023-07-31T00:07:15;94358.47;;;19.93;100.00
35989;BME280;22064;42.672;23.282;2023-07-31T00:09:41;94368.94;;;20.06;100.00
35989;BME280;22064;42.672;23.282;2023-07-31T00:12:07;94359.75;;;20.04;100.00
35989;BME280;22064;42.672;23.282;2023-07-31T00:14:33;94371.13;;;20.22;100.00
35989;BME280;22064;42.672;23.282;2023-07-31T00:16:59;94365.50;;;20.15;100.00
35989;BME280;22064;42.672;23.282;2023-07-31T00:19:25;94365.19;;;20.07;100.00
35989;BME280;22064;42.672;23.282;2023-07-31T00:21:51;94359.69;;;19.87;100.00
35989;BME280;22064;42.672;23.282;2023-07-31T00:24:17;94359.69;;;19.55;100.00
35989;BME280;22064;42.672;23.282;2023-07-31T00:26:43;94349.69;;;19.35;100.00
35989;BME280;22064;42.672;23.282;2023-07-31T00:29:09;94344.22;;;19.31;100.00
35989;BME280;22064;42.672;23.282;2023-07-31T00:31:36;94326.50;;;19.23;100.00
35989;BME280;22064;42.672;23.282;2023-07-31T00:34:02;94323.53;;;19.25;100.00
35989;BME280;22064;42.672;23.282;2023-07-31T00:36:28;94323.53;;;19.25;100.00
35989;BME280;22064;42.672;23.282;2023-07-31T00:38:54;94321.69;;;19.25;100.00
35989;BME280;22064;42.672;23.282;2023-07-31T00:41:20;94310.50;;;19.20;100.00
35989;BME280;22064;42.672;23.282;2023-07-31T00:43:46;94313.50;;;19.04;100.00
35989;BME280;22064;42.672;23.282;2023-07-31T00:46:12;94325.34;;;19.07;100.00
35989;BME280;22064;42.672;23.282;2023-07-31T00:48:39;94331.66;;;19.06;100.00
35989;BME280;22064;42.672;23.282;2023-07-31T00:51:05;94328.38;;;19.00;100.00
35989;BME280;22064;42.672;23.282;2023-07-31T00:53:31;94330.41;;;19.03;100.00
35989;BME280;22064;42.672;23.282;2023-07-31T00:55:57;94323.75;;;19.06;100.00
35989;BME280;22064;42.672;23.282;2023-07-31T00:58:24;94318.66;;;19.09;100.00
35989;BME280;22064;42.672;23.282;2023-07-31T01:00:51;94325.84;;;19.18;100.00
35989;BME280;22064;42.672;23.282;2023-07-31T01:03:18;94316.63;;;19.06;100.00
35989;BME280;22064;42.672;23.282;2023-07-31T01:06:01;94318.34;;;19.11;100.00
35989;BME280;22064;42.672;23.282;2023-07-31T01:08:54;94318.09;;;19.21;100.00
35989;BME280;22064;42.672;23.282;2023-07-31T01:11:28;94318.53;;;19.14;100.00
35989;BME280;22064;42.672;23.282;2023-07-31T01:13:55;94318.53;;;19.14;100.00
35989;BME280;22064;42.672;23.282;2023-07-31T01:16:22;94316.50;;;19.11;100.00
35989;BME280;22064;42.672;23.282;2023-07-31T01:18:48;94305.88;;;19.03;100.00
35989;BME280;22064;42.672;23.282;2023-07-31T01:26:43;94305.38;;;18.92;100.00
35989;BME280;22064;42.672;23.282;2023-07-31T01:32:01;94296.97;;;18.90;100.00
35989;BME280;22064;42.672;23.282;2023-07-31T01:34:29;94306.59;;;18.86;100.00
35989;BME280;22064;42.672;23.282;2023-07-31T01:36:56;94299.75;;;18.85;100.00
35989;BME280;22064;42.672;23.282;2023-07-31T01:39:22;94303.00;;;18.82;100.00
35989;BME280;22064;42.672;23.282;2023-07-31T01:41:48;94281.53;;;18.75;100.00
35989;BME280;22064;42.672;23.282;2023-07-31T01:44:14;94292.06;;;18.75;100.00
35989;BME280;22064;42.672;23.282;2023-07-31T01:46:40;94296.31;;;18.84;100.00
35989;BME280;22064;42.672;23.282;2023-07-31T01:49:06;94283.72;;;18.81;100.00
35989;BME280;22064;42.672;23.282;2023-07-31T01:51:32;94294.59;;;18.80;100.00
35989;BME280;22064;42.672;23.282;2023-07-31T01:54:01;94302.09;;;18.86;100.00
35989;BME280;22064;42.672;23.282;2023-07-31T01:56:28;94306.25;;;18.79;100.00
35989;BME280;22064;42.672;23.282;2023-07-31T01:58:54;94307.28;;;18.78;100.00
35989;BME280;22064;42.672;23.282;2023-07-31T02:01:20;94296.88;;;18.73;100.00
35989;BME280;22064;42.672;23.282;2023-07-31T02:03:46;94310.31;;;18.85;100.00
35989;BME280;22064;42.672;23.282;2023-07-31T02:06:12;94309.00;;;18.74;100.00
35989;BME280;22064;42.672;23.282;2023-07-31T02:08:38;94307.78;;;18.80;100.00
35989;BME280;22064;42.672;23.282;2023-07-31T02:11:04;94313.22;;;18.83;100.00
35989;BME280;22064;42.672;23.282;2023-07-31T02:13:30;94317.13;;;18.86;100.00
35989;BME280;22064;42.672;23.282;2023-07-31T02:15:56;94314.38;;;18.91;100.00
35989;BME280;22064;42.672;23.282;2023-07-31T02:18:25;94319.41;;;19.01;100.00
35989;BME280;22064;42.672;23.282;2023-07-31T02:20:51;94318.47;;;19.06;100.00
35989;BME280;22064;42.672;23.282;2023-07-31T02:23:18;94309.78;;;19.05;100.00
35989;BME280;22064;42.672;23.282;2023-07-31T02:25:45;94317.16;;;19.17;100.00
35989;BME280;22064;42.672;23.282;2023-07-31T02:28:11;94307.81;;;19.11;100.00
35989;BME280;22064;42.672;23.282;2023-07-31T02:30:37;94311.81;;;19.08;100.00
35989;BME280;22064;42.672;23.282;2023-07-31T02:33:04;94310.13;;;19.12;100.00
35989;BME280;22064;42.672;23.282;2023-07-31T02:35:31;94310.31;;;19.16;100.00
35989;BME280;22064;42.672;23.282;2023-07-31T02:37:57;94295.56;;;19.15;100.00
35989;BME280;22064;42.672;23.282;2023-07-31T02:40:22;94314.75;;;19.38;100.00
35989;BME280;22064;42.672;23.282;2023-07-31T02:42:49;94315.81;;;19.37;100.00
35989;BME280;22064;42.672;23.282;2023-07-31T02:45:15;94327.97;;;19.38;100.00
35989;BME280;22064;42.672;23.282;2023-07-31T02:47:41;94324.41;;;19.43;100.00
35989;BME280;22064;42.672;23.282;2023-07-31T02:50:07;94331.41;;;19.47;100.00
35989;BME280;22064;42.672;23.282;2023-07-31T02:52:33;94327.25;;;19.55;100.00
35989;BME280;22064;42.672;23.282;2023-07-31T02:54:59;94335.19;;;19.64;100.00
35989;BME280;22064;42.672;23.282;2023-07-31T02:57:25;94330.81;;;19.59;100.00
35989;BME280;22064;42.672;23.282;2023-07-31T02:59:51;94338.13;;;19.62;100.00
35989;BME280;22064;42.672;23.282;2023-07-31T03:02:17;94340.78;;;19.62;100.00
35989;BME280;22064;42.672;23.282;2023-07-31T03:04:43;94337.91;;;19.72;100.00
35989;BME280;22064;42.672;23.282;2023-07-31T03:07:09;94344.91;;;19.77;100.00
35989;BME280;22064;42.672;23.282;2023-07-31T03:09:35;94339.13;;;19.75;100.00
35989;BME280;22064;42.672;23.282;2023-07-31T03:12:01;94340.84;;;19.71;100.00
35989;BME280;22064;42.672;23.282;2023-07-31T03:14:27;94341.09;;;19.60;100.00
35989;BME280;22064;42.672;23.282;2023-07-31T03:16:53;94347.91;;;19.61;100.00
35989;BME280;22064;42.672;23.282;2023-07-31T03:19:19;94350.09;;;19.59;100.00
35989;BME280;22064;42.672;23.282;2023-07-31T03:21:45;94351.94;;;19.50;100.00
35989;BME280;22064;42.672;23.282;2023-07-31T03:24:11;94355.81;;;19.53;100.00
35989;BME280;22064;42.672;23.282;2023-07-31T03:26:40;94346.22;;;19.57;100.00
35989;BME280;22064;42.672;23.282;2023-07-31T03:29:08;94354.25;;;19.52;100.00
35989;BME280;22064;42.672;23.282;2023-07-31T03:31:34;94362.22;;;19.60;100.00
35989;BME280;22064;42.672;23.282;2023-07-31T03:34:00;94351.78;;;19.55;100.00
35989;BME280;22064;42.672;23.282;2023-07-31T03:36:26;94351.03;;;19.64;100.00
35989;BME280;22064;42.672;23.282;2023-07-31T03:38:53;94359.19;;;19.76;100.00
35989;BME280;22064;42.672;23.282;2023-07-31T03:41:19;94365.28;;;19.85;100.00
35989;BME280;22064;42.672;23.282;2023-07-31T03:43:50;94363.88;;;19.79;100.00
35989;BME280;22064;42.672;23.282;2023-07-31T03:46:22;94381.38;;;19.66;100.00
35989;BME280;22064;42.672;23.282;2023-07-31T03:48:49;94371.00;;;19.70;100.00
35989;BME280;22064;42.672;23.282;2023-07-31T03:51:15;94364.53;;;19.53;100.00
35989;BME280;22064;42.672;23.282;2023-07-31T03:53:42;94381.19;;;19.63;100.00
35989;BME280;22064;42.672;23.282;2023-07-31T03:56:08;94367.47;;;19.52;100.00
35989;BME280;22064;42.672;23.282;2023-07-31T03:58:34;94373.50;;;19.52;100.00
35989;BME280;22064;42.672;23.282;2023-07-31T04:01:01;94379.56;;;19.53;100.00
35989;BME280;22064;42.672;23.282;2023-07-31T04:03:27;94374.91;;;19.50;100.00
35989;BME280;22064;42.672;23.282;2023-07-31T04:05:54;94372.25;;;19.50;100.00
35989;BME280;22064;42.672;23.282;2023-07-31T04:08:22;94389.53;;;19.56;100.00
35989;BME280;22064;42.672;23.282;2023-07-31T04:10:48;94391.09;;;19.57;100.00
35989;BME280;22064;42.672;23.282;2023-07-31T04:13:15;94392.28;;;19.42;100.00
35989;BME280;22064;42.672;23.282;2023-07-31T04:15:41;94386.56;;;19.49;100.00
35989;BME280;22064;42.672;23.282;2023-07-31T04:18:08;94386.88;;;19.56;100.00
35989;BME280;22064;42.672;23.282;2023-07-31T04:20:34;94395.47;;;19.61;100.00
35989;BME280;22064;42.672;23.282;2023-07-31T04:23:00;94391.75;;;19.63;100.00
35989;BME280;22064;42.672;23.282;2023-07-31T04:25:26;94377.66;;;19.67;100.00
35989;BME280;22064;42.672;23.282;2023-07-31T04:27:52;94391.53;;;19.81;100.00
35989;BME280;22064;42.672;23.282;2023-07-31T04:30:18;94392.44;;;19.77;100.00
35989;BME280;22064;42.672;23.282;2023-07-31T04:32:43;94396.22;;;19.93;100.00
35989;BME280;22064;42.672;23.282;2023-07-31T04:35:10;94403.66;;;19.82;100.00
35989;BME280;22064;42.672;23.282;2023-07-31T04:37:36;94395.16;;;19.94;100.00
35989;BME280;22064;42.672;23.282;2023-07-31T04:40:02;94390.78;;;19.90;100.00
35989;BME280;22064;42.672;23.282;2023-07-31T04:42:28;94388.78;;;19.95;100.00
35989;BME280;22064;42.672;23.282;2023-07-31T04:44:54;94394.34;;;19.85;100.00
35989;BME280;22064;42.672;23.282;2023-07-31T04:47:20;94386.88;;;19.87;100.00
35989;BME280;22064;42.672;23.282;2023-07-31T04:49:46;94369.03;;;19.93;100.00
35989;BME280;22064;42.672;23.282;2023-07-31T04:52:11;94379.81;;;20.14;100.00
35989;BME280;22064;42.672;23.282;2023-07-31T04:54:38;94385.72;;;20.11;100.00
35989;BME280;22064;42.672;23.282;2023-07-31T04:57:04;94388.22;;;20.16;100.00
35989;BME280;22064;42.672;23.282;2023-07-31T04:59:31;94384.44;;;19.99;100.00
35989;BME280;22064;42.672;23.282;2023-07-31T05:01:57;94376.66;;;19.94;100.00
35989;BME280;22064;42.672;23.282;2023-07-31T05:04:23;94383.38;;;20.00;100.00
35989;BME280;22064;42.672;23.282;2023-07-31T05:06:49;94384.78;;;20.06;100.00
35989;BME280;22064;42.672;23.282;2023-07-31T05:09:15;94383.56;;;20.13;100.00
35989;BME280;22064;42.672;23.282;2023-07-31T05:11:41;94385.91;;;20.23;100.00
35989;BME280;22064;42.672;23.282;2023-07-31T05:14:09;94373.91;;;20.17;100.00
35989;BME280;22064;42.672;23.282;2023-07-31T05:16:35;94387.59;;;20.27;100.00
35989;BME280;22064;42.672;23.282;2023-07-31T05:19:00;94397.25;;;20.23;100.00
35989;BME280;22064;42.672;23.282;2023-07-31T05:21:27;94381.25;;;20.28;100.00
35989;BME280;22064;42.672;23.282;2023-07-31T05:23:53;94385.22;;;20.08;100.00
35989;BME280;22064;42.672;23.282;2023-07-31T05:26:18;94384.78;;;20.06;100.00
35989;BME280;22064;42.672;23.282;2023-07-31T05:28:45;94385.13;;;20.22;100.00
35989;BME280;22064;42.672;23.282;2023-07-31T05:31:11;94384.47;;;20.08;100.00
35989;BME280;22064;42.672;23.282;2023-07-31T05:33:36;94379.06;;;20.22;100.00
35989;BME280;22064;42.672;23.282;2023-07-31T05:36:02;94389.78;;;20.34;100.00
35989;BME280;22064;42.672;23.282;2023-07-31T05:38:29;94395.06;;;20.34;100.00
35989;BME280;22064;42.672;23.282;2023-07-31T05:40:55;94385.91;;;20.40;100.00
35989;BME280;22064;42.672;23.282;2023-07-31T05:43:21;94379.81;;;20.31;100.00
35989;BME280;22064;42.672;23.282;2023-07-31T05:45:47;94393.38;;;20.29;100.00
35989;BME280;22064;42.672;23.282;2023-07-31T05:48:13;94376.75;;;20.38;100.00
35989;BME280;22064;42.672;23.282;2023-07-31T05:50:39;94380.97;;;20.47;100.00
35989;BME280;22064;42.672;23.282;2023-07-31T05:53:06;94377.53;;;20.47;100.00
35989;BME280;22064;42.672;23.282;2023-07-31T05:55:32;94395.41;;;20.41;100.00
35989;BME280;22064;42.672;23.282;2023-07-31T05:57:58;94404.63;;;20.52;100.00
35989;BME280;22064;42.672;23.282;2023-07-31T06:00:24;94389.53;;;20.62;100.00
35989;BME280;22064;42.672;23.282;2023-07-31T06:02:50;94395.63;;;20.97;100.00
35989;BME280;22064;42.672;23.282;2023-07-31T06:05:17;94399.94;;;21.19;100.00
35989;BME280;22064;42.672;23.282;2023-07-31T06:07:44;94412.22;;;21.50;100.00
35989;BME280;22064;42.672;23.282;2023-07-31T06:10:10;94407.69;;;21.50;100.00
35989;BME280;22064;42.672;23.282;2023-07-31T06:12:36;94410.50;;;21.45;100.00
35989;BME280;22064;42.672;23.282;2023-07-31T06:15:03;94397.44;;;21.31;100.00
35989;BME280;22064;42.672;23.282;2023-07-31T06:17:29;94426.41;;;21.45;100.00
35989;BME280;22064;42.672;23.282;2023-07-31T06:19:56;94414.41;;;21.30;100.00
35989;BME280;22064;42.672;23.282;2023-07-31T06:22:22;94419.88;;;20.99;100.00
35989;BME280;22064;42.672;23.282;2023-07-31T06:24:48;94410.69;;;21.31;100.00
35989;BME280;22064;42.672;23.282;2023-07-31T06:27:15;94422.38;;;21.21;100.00
35989;BME280;22064;42.672;23.282;2023-07-31T06:29:42;94418.16;;;21.12;100.00
35989;BME280;22064;42.672;23.282;2023-07-31T06:32:08;94406.63;;;21.25;100.00
35989;BME280;22064;42.672;23.282;2023-07-31T06:34:34;94421.28;;;20.96;100.00
35989;BME280;22064;42.672;23.282;2023-07-31T06:37:00;94424.06;;;21.17;100.00
35989;BME280;22064;42.672;23.282;2023-07-31T06:39:25;94422.06;;;21.40;100.00
35989;BME280;22064;42.672;23.282;2023-07-31T06:41:51;94414.66;;;21.63;100.00
35989;BME280;22064;42.672;23.282;2023-07-31T06:44:17;94412.81;;;21.55;100.00
35989;BME280;22064;42.672;23.282;2023-07-31T06:46:43;94418.16;;;21.29;100.00
35989;BME280;22064;42.672;23.282;2023-07-31T06:49:09;94413.91;;;21.54;100.00
35989;BME280;22064;42.672;23.282;2023-07-31T06:51:35;94409.78;;;21.74;100.00
35989;BME280;22064;42.672;23.282;2023-07-31T06:54:01;94434.91;;;21.68;100.00
35989;BME280;22064;42.672;23.282;2023-07-31T06:56:28;94432.19;;;21.38;100.00
35989;BME280;22064;42.672;23.282;2023-07-31T06:58:55;94413.28;;;21.57;100.00
35989;BME280;22064;42.672;23.282;2023-07-31T07:01:21;94423.09;;;21.57;100.00
35989;BME280;22064;42.672;23.282;2023-07-31T07:03:47;94407.84;;;21.92;100.00
35989;BME280;22064;42.672;23.282;2023-07-31T07:06:19;94421.88;;;21.54;100.00
35989;BME280;22064;42.672;23.282;2023-07-31T07:08:45;94417.69;;;21.36;100.00
35989;BME280;22064;42.672;23.282;2023-07-31T07:11:11;94405.69;;;21.30;100.00
35989;BME280;22064;42.672;23.282;2023-07-31T07:13:37;94410.50;;;21.28;100.00
35989;BME280;22064;42.672;23.282;2023-07-31T07:16:03;94396.63;;;21.31;100.00
35989;BME280;22064;42.672;23.282;2023-07-31T07:18:29;94422.84;;;21.41;100.00
35989;BME280;22064;42.672;23.282;2023-07-31T07:20:56;94409.38;;;21.55;100.00
35989;BME280;22064;42.672;23.282;2023-07-31T07:23:23;94405.72;;;21.77;100.00
35989;BME280;22064;42.672;23.282;2023-07-31T07:25:50;94410.13;;;21.73;100.00
35989;BME280;22064;42.672;23.282;2023-07-31T07:28:17;94395.88;;;21.86;100.00
35989;BME280;22064;42.672;23.282;2023-07-31T07:30:43;94418.25;;;22.06;100.00
35989;BME280;22064;42.672;23.282;2023-07-31T07:33:09;94396.78;;;22.28;100.00
35989;BME280;22064;42.672;23.282;2023-07-31T07:35:35;94439.66;;;22.30;100.00
35989;BME280;22064;42.672;23.282;2023-07-31T07:38:02;94428.28;;;22.30;100.00
35989;BME280;22064;42.672;23.282;2023-07-31T07:40:29;94407.19;;;22.33;100.00
35989;BME280;22064;42.672;23.282;2023-07-31T07:42:55;94419.22;;;21.92;100.00
35989;BME280;22064;42.672;23.282;2023-07-31T07:45:21;94422.91;;;22.09;100.00
35989;BME280;22064;42.672;23.282;2023-07-31T07:47:47;94451.25;;;22.26;100.00
35989;BME280;22064;42.672;23.282;2023-07-31T07:50:13;94406.94;;;22.26;100.00
35989;BME280;22064;42.672;23.282;2023-07-31T07:52:39;94417.72;;;22.51;100.00
35989;BME280;22064;42.672;23.282;2023-07-31T07:55:05;94441.47;;;22.47;100.00
35989;BME280;22064;42.672;23.282;2023-07-31T07:57:31;94448.44;;;22.52;100.00
35989;BME280;22064;42.672;23.282;2023-07-31T07:59:57;94429.06;;;22.30;100.00
35989;BME280;22064;42.672;23.282;2023-07-31T08:02:23;94444.84;;;22.27;100.00
35989;BME280;22064;42.672;23.282;2023-07-31T08:04:49;94412.97;;;22.35;100.00
35989;BME280;22064;42.672;23.282;2023-07-31T08:07:15;94420.50;;;22.54;100.00
35989;BME280;22064;42.672;23.282;2023-07-31T08:09:41;94416.88;;;22.80;100.00
35989;BME280;22064;42.672;23.282;2023-07-31T08:12:07;94431.13;;;22.75;100.00
35989;BME280;22064;42.672;23.282;2023-07-31T08:14:33;94450.72;;;22.83;100.00
35989;BME280;22064;42.672;23.282;2023-07-31T08:17:00;94419.97;;;22.61;100.00
35989;BME280;22064;42.672;23.282;2023-07-31T08:19:26;94396.81;;;22.91;100.00
35989;BME280;22064;42.672;23.282;2023-07-31T08:21:52;94433.78;;;23.17;100.00
35989;BME280;22064;42.672;23.282;2023-07-31T08:24:18;94427.13;;;22.40;100.00
35989;BME280;22064;42.672;23.282;2023-07-31T08:26:44;94435.25;;;22.94;100.00
35989;BME280;22064;42.672;23.282;2023-07-31T08:29:10;94440.03;;;22.71;100.00
35989;BME280;22064;42.672;23.282;2023-07-31T08:31:36;94414.88;;;22.98;100.00
35989;BME280;22064;42.672;23.282;2023-07-31T08:34:02;94409.56;;;23.19;100.00
35989;BME280;22064;42.672;23.282;2023-07-31T08:36:28;94417.53;;;23.52;100.00
35989;BME280;22064;42.672;23.282;2023-07-31T08:38:54;94423.09;;;22.84;100.00
35989;BME280;22064;42.672;23.282;2023-07-31T08:41:20;94422.22;;;23.34;100.00
35989;BME280;22064;42.672;23.282;2023-07-31T08:43:46;94411.84;;;23.41;100.00
35989;BME280;22064;42.672;23.282;2023-07-31T08:46:13;94430.56;;;23.78;100.00
35989;BME280;22064;42.672;23.282;2023-07-31T08:48:42;94427.31;;;23.39;100.00
35989;BME280;22064;42.672;23.282;2023-07-31T08:51:09;94426.09;;;23.03;100.00
35989;BME280;22064;42.672;23.282;2023-07-31T08:53:35;94421.50;;;23.13;100.00
35989;BME280;22064;42.672;23.282;2023-07-31T08:56:02;94429.28;;;23.30;100.00
35989;BME280;22064;42.672;23.282;2023-07-31T08:58:31;94420.84;;;23.49;100.00
35989;BME280;22064;42.672;23.282;2023-07-31T09:01:03;94429.25;;;23.51;100.00
35989;BME280;22064;42.672;23.282;2023-07-31T09:03:33;94423.06;;;23.59;100.00
35989;BME280;22064;42.672;23.282;2023-07-31T09:06:00;94405.19;;;23.93;100.00
35989;BME280;22064;42.672;23.282;2023-07-31T09:08:30;94420.06;;;24.31;94.83
35989;BME280;22064;42.672;23.282;2023-07-31T09:11:02;94406.31;;;24.04;98.06
35989;BME280;22064;42.672;23.282;2023-07-31T09:13:33;94402.84;;;24.40;96.64
35989;BME280;22064;42.672;23.282;2023-07-31T09:15:59;94406.53;;;24.11;100.00
35989;BME280;22064;42.672;23.282;2023-07-31T09:18:25;94399.88;;;24.42;100.00
35989;BME280;22064;42.672;23.282;2023-07-31T09:21:04;94403.84;;;24.24;100.00
35989;BME280;22064;42.672;23.282;2023-07-31T09:23:42;94413.19;;;24.05;100.00
35989;BME280;22064;42.672;23.282;2023-07-31T09:26:08;94396.75;;;24.40;99.76
35989;BME280;22064;42.672;23.282;2023-07-31T09:28:34;94381.38;;;24.21;99.64
35989;BME280;22064;42.672;23.282;2023-07-31T09:31:00;94393.06;;;24.69;97.64
35989;BME280;22064;42.672;23.282;2023-07-31T09:33:26;94405.69;;;24.72;99.51
35989;BME280;22064;42.672;23.282;2023-07-31T09:35:52;94389.91;;;24.79;100.00
35989;BME280;22064;42.672;23.282;2023-07-31T09:38:18;94375.13;;;24.54;99.25
35989;BME280;22064;42.672;23.282;2023-07-31T09:40:46;94392.03;;;24.09;100.00
35989;BME280;22064;42.672;23.282;2023-07-31T09:43:16;94379.09;;;24.60;98.57
35989;BME280;22064;42.672;23.282;2023-07-31T09:45:44;94397.97;;;24.95;96.47
35989;BME280;22064;42.672;23.282;2023-07-31T09:48:12;94387.97;;;24.64;96.43
35989;BME280;22064;42.672;23.282;2023-07-31T09:50:39;94383.59;;;24.84;96.01
35989;BME280;22064;42.672;23.282;2023-07-31T09:53:07;94386.09;;;24.64;98.82
35989;BME280;22064;42.672;23.282;2023-07-31T09:55:34;94411.72;;;24.97;92.48
35989;BME280;22064;42.672;23.282;2023-07-31T09:58:06;94392.97;;;24.41;92.19
35989;BME280;22064;42.672;23.282;2023-07-31T10:00:33;94371.69;;;24.41;95.27
35989;BME280;22064;42.672;23.282;2023-07-31T10:03:01;94374.28;;;24.78;94.30
35989;BME280;22064;42.672;23.282;2023-07-31T10:05:45;94376.16;;;24.25;96.31
35989;BME280;22064;42.672;23.282;2023-07-31T10:08:14;94373.25;;;24.42;94.87
35989;BME280;22064;42.672;23.282;2023-07-31T10:10:44;94367.31;;;25.01;86.57
35989;BME280;22064;42.672;23.282;2023-07-31T10:13:12;94371.72;;;25.38;84.17
35989;BME280;22064;42.672;23.282;2023-07-31T10:15:39;94380.31;;;25.03;79.52
35989;BME280;22064;42.672;23.282;2023-07-31T10:18:06;94371.53;;;25.15;78.86
35989;BME280;22064;42.672;23.282;2023-07-31T10:20:33;94371.00;;;24.97;80.07
35989;BME280;22064;42.672;23.282;2023-07-31T10:23:00;94365.38;;;25.42;75.13
35989;BME280;22064;42.672;23.282;2023-07-31T10:25:26;94359.38;;;25.45;73.98
35989;BME280;22064;42.672;23.282;2023-07-31T10:27:53;94371.34;;;25.23;76.06
35989;BME280;22064;42.672;23.282;2023-07-31T10:30:27;94367.94;;;24.82;81.98
35989;BME280;22064;42.672;23.282;2023-07-31T10:32:55;94357.34;;;24.98;78.88
35989;BME280;22064;42.672;23.282;2023-07-31T10:35:22;94354.78;;;25.30;73.92
35989;BME280;22064;42.672;23.282;2023-07-31T10:37:48;94356.44;;;25.50;68.31
35989;BME280;22064;42.672;23.282;2023-07-31T10:40:25;94360.94;;;25.18;69.27
35989;BME280;22064;42.672;23.282;2023-07-31T10:42:53;94348.56;;;25.26;69.54
35989;BME280;22064;42.672;23.282;2023-07-31T10:45:33;94363.50;;;25.58;69.32
35989;BME280;22064;42.672;23.282;2023-07-31T10:48:01;94343.19;;;25.70;66.55
35989;BME280;22064;42.672;23.282;2023-07-31T10:50:28;94369.00;;;25.50;64.08
35989;BME280;22064;42.672;23.282;2023-07-31T10:52:56;94362.88;;;25.33;64.77
35989;BME280;22064;42.672;23.282;2023-07-31T10:55:39;94351.19;;;25.70;65.30
35989;BME280;22064;42.672;23.282;2023-07-31T10:58:18;94351.97;;;26.02;58.78
35989;BME280;22064;42.672;23.282;2023-07-31T11:00:45;94355.84;;;25.89;58.02
35989;BME280;22064;42.672;23.282;2023-07-31T11:03:14;94340.03;;;25.96;58.55
35989;BME280;22064;42.672;23.282;2023-07-31T11:05:52;94336.91;;;26.10;55.58
35989;BME280;22064;42.672;23.282;2023-07-31T11:08:27;94345.88;;;26.01;55.49
35989;BME280;22064;42.672;23.282;2023-07-31T11:13:52;94347.75;;;25.69;55.16
35989;BME280;22064;42.672;23.282;2023-07-31T11:16:20;94333.69;;;26.20;52.30
35989;BME280;22064;42.672;23.282;2023-07-31T11:18:48;94326.00;;;26.34;51.80
35989;BME280;22064;42.672;23.282;2023-07-31T11:21:17;94336.84;;;26.25;52.88
35989;BME280;22064;42.672;23.282;2023-07-31T11:23:47;94339.63;;;26.13;52.47
35989;BME280;22064;42.672;23.282;2023-07-31T11:26:14;94335.88;;;26.49;51.89
35989;BME280;22064;42.672;23.282;2023-07-31T11:28:40;94330.13;;;26.32;52.94
35989;BME280;22064;42.672;23.282;2023-07-31T11:31:11;94332.44;;;26.49;53.65
35989;BME280;22064;42.672;23.282;2023-07-31T11:33:37;94328.72;;;26.38;54.00
35989;BME280;22064;42.672;23.282;2023-07-31T11:36:04;94327.88;;;26.34;53.40
35989;BME280;22064;42.672;23.282;2023-07-31T11:38:32;94351.78;;;25.63;59.23
35989;BME280;22064;42.672;23.282;2023-07-31T11:41:02;94339.84;;;25.89;61.95
35989;BME280;22064;42.672;23.282;2023-07-31T11:43:29;94347.41;;;25.71;59.76
35989;BME280;22064;42.672;23.282;2023-07-31T11:45:58;94350.69;;;25.96;58.52
35989;BME280;22064;42.672;23.282;2023-07-31T11:48:27;94340.94;;;26.03;57.10
35989;BME280;22064;42.672;23.282;2023-07-31T11:50:59;94329.72;;;26.30;54.69
35989;BME280;22064;42.672;23.282;2023-07-31T11:53:47;94332.44;;;26.14;53.31
35989;BME280;22064;42.672;23.282;2023-07-31T11:56:20;94316.56;;;26.56;54.93
35989;BME280;22064;42.672;23.282;2023-07-31T11:58:49;94313.88;;;27.14;52.98
35989;BME280;22064;42.672;23.282;2023-07-31T12:01:18;94312.97;;;26.87;53.72
35989;BME280;22064;42.672;23.282;2023-07-31T12:03:46;94306.38;;;26.62;53.38
35989;BME280;22064;42.672;23.282;2023-07-31T12:06:12;94315.75;;;26.36;56.62
35989;BME280;22064;42.672;23.282;2023-07-31T12:08:38;94313.94;;;26.60;55.36
35989;BME280;22064;42.672;23.282;2023-07-31T12:11:05;94328.22;;;26.67;54.76
35989;BME280;22064;42.672;23.282;2023-07-31T12:13:32;94316.16;;;26.74;54.76
35989;BME280;22064;42.672;23.282;2023-07-31T12:16:00;94318.88;;;26.77;56.13
35989;BME280;22064;42.672;23.282;2023-07-31T12:18:29;94303.09;;;26.33;61.99
35989;BME280;22064;42.672;23.282;2023-07-31T12:21:00;94304.59;;;26.50;61.98
35989;BME280;22064;42.672;23.282;2023-07-31T12:23:28;94304.88;;;26.84;58.22
35989;BME280;22064;42.672;23.282;2023-07-31T12:26:08;94316.69;;;26.63;56.04
35989;BME280;22064;42.672;23.282;2023-07-31T12:28:44;94312.41;;;26.59;57.67
35989;BME280;22064;42.672;23.282;2023-07-31T12:31:15;94309.69;;;26.55;54.75
35989;BME280;22064;42.672;23.282;2023-07-31T12:33:43;94301.41;;;26.25;53.48
35989;BME280;22064;42.672;23.282;2023-07-31T12:36:12;94292.94;;;26.78;54.23
35989;BME280;22064;42.672;23.282;2023-07-31T12:38:38;94309.25;;;26.72;52.21
35989;BME280;22064;42.672;23.282;2023-07-31T12:41:05;94309.25;;;26.53;51.88
35989;BME280;22064;42.672;23.282;2023-07-31T12:43:37;94305.06;;;26.36;51.87
35989;BME280;22064;42.672;23.282;2023-07-31T12:46:03;94307.19;;;26.46;53.53
35989;BME280;22064;42.672;23.282;2023-07-31T12:48:30;94299.34;;;26.54;53.78
35989;BME280;22064;42.672;23.282;2023-07-31T12:50:56;94295.56;;;26.55;53.32
35989;BME280;22064;42.672;23.282;2023-07-31T12:53:22;94285.59;;;26.52;53.22
35989;BME280;22064;42.672;23.282;2023-07-31T12:55:48;94271.28;;;26.44;53.00